Terminal Aerodrome Forecast
Issued by NWS Des Moines, IA

Home | Current Version | Previous Version | Text Only | Print | Product List | Glossary On
Versions: 1 2 3 4 5 6 7 8 9 10 11 12 13 14 15 16 17 18 19
000
FTUS43 KDMX 240520
TAFDSM
TAF
KDSM 240520Z 2406/2506 13013G20KT P6SM VCSH SCT080 BKN130
     FM241200 14012G18KT 5SM TSRA BKN020CB BKN035
     FM241600 22012KT 6SM -SHRA BR OVC020
     FM242200 30013KT P6SM BKN020 OVC250
     FM250100 33007KT P6SM SCT250=

USA.gov is the U.S. government's official web portal to all federal, state and local government web resources and services.